sensor_id;sensor_type;location;lat;lon;timestamp;P1;durP1;ratioP1;P2;durP2;ratioP2
44694;SDS011;32845;59.422;17.930;2024-01-30T00:04:29;27.38;;;7.43;;
44694;SDS011;32845;59.422;17.930;2024-01-30T00:09:00;35.53;;;7.75;;
44694;SDS011;32845;59.422;17.930;2024-01-30T00:13:30;24.10;;;7.50;;
44694;SDS011;32845;59.422;17.930;2024-01-30T00:18:01;28.83;;;7.80;;
44694;SDS011;32845;59.422;17.930;2024-01-30T00:22:31;40.40;;;8.52;;
44694;SDS011;32845;59.422;17.930;2024-01-30T00:27:02;32.30;;;8.00;;
44694;SDS011;32845;59.422;17.930;2024-01-30T00:31:33;29.58;;;8.48;;
44694;SDS011;32845;59.422;17.930;2024-01-30T00:36:05;35.85;;;9.95;;
44694;SDS011;32845;59.422;17.930;2024-01-30T00:40:36;30.00;;;8.85;;
44694;SDS011;32845;59.422;17.930;2024-01-30T00:45:11;40.72;;;9.73;;
44694;SDS011;32845;59.422;17.930;2024-01-30T00:49:43;34.50;;;9.38;;
44694;SDS011;32845;59.422;17.930;2024-01-30T00:54:14;39.72;;;9.43;;
44694;SDS011;32845;59.422;17.930;2024-01-30T00:58:45;29.50;;;7.65;;
44694;SDS011;32845;59.422;17.930;2024-01-30T01:03:15;39.30;;;8.98;;
44694;SDS011;32845;59.422;17.930;2024-01-30T01:07:46;42.38;;;8.80;;
44694;SDS011;32845;59.422;17.930;2024-01-30T01:12:18;75.15;;;10.40;;
44694;SDS011;32845;59.422;17.930;2024-01-30T01:16:48;68.80;;;11.88;;
44694;SDS011;32845;59.422;17.930;2024-01-30T01:21:19;53.20;;;10.52;;
44694;SDS011;32845;59.422;17.930;2024-01-30T01:25:50;43.67;;;8.88;;
44694;SDS011;32845;59.422;17.930;2024-01-30T01:30:20;40.47;;;8.52;;
44694;SDS011;32845;59.422;17.930;2024-01-30T01:34:53;38.47;;;9.32;;
44694;SDS011;32845;59.422;17.930;2024-01-30T01:39:24;52.20;;;8.95;;
44694;SDS011;32845;59.422;17.930;2024-01-30T01:43:54;44.42;;;8.10;;
44694;SDS011;32845;59.422;17.930;2024-01-30T01:48:25;58.47;;;9.43;;
44694;SDS011;32845;59.422;17.930;2024-01-30T01:52:56;57.03;;;9.32;;
44694;SDS011;32845;59.422;17.930;2024-01-30T01:57:27;92.20;;;9.57;;
44694;SDS011;32845;59.422;17.930;2024-01-30T02:01:58;72.05;;;9.50;;
44694;SDS011;32845;59.422;17.930;2024-01-30T02:06:29;44.20;;;9.02;;
44694;SDS011;32845;59.422;17.930;2024-01-30T02:10:59;63.35;;;8.43;;
44694;SDS011;32845;59.422;17.930;2024-01-30T02:15:30;53.13;;;9.07;;
44694;SDS011;32845;59.422;17.930;2024-01-30T02:20:01;84.50;;;9.02;;
44694;SDS011;32845;59.422;17.930;2024-01-30T02:24:31;85.75;;;8.63;;
44694;SDS011;32845;59.422;17.930;2024-01-30T02:29:02;64.32;;;9.38;;
44694;SDS011;32845;59.422;17.930;2024-01-30T02:33:32;27.23;;;8.93;;
44694;SDS011;32845;59.422;17.930;2024-01-30T02:38:03;51.90;;;8.30;;
44694;SDS011;32845;59.422;17.930;2024-01-30T02:42:34;39.97;;;8.13;;
44694;SDS011;32845;59.422;17.930;2024-01-30T02:47:05;33.20;;;7.10;;
44694;SDS011;32845;59.422;17.930;2024-01-30T02:51:35;88.10;;;8.85;;
44694;SDS011;32845;59.422;17.930;2024-01-30T02:56:06;41.22;;;8.07;;
44694;SDS011;32845;59.422;17.930;2024-01-30T03:00:39;102.15;;;9.15;;
44694;SDS011;32845;59.422;17.930;2024-01-30T03:05:10;47.20;;;6.72;;
44694;SDS011;32845;59.422;17.930;2024-01-30T03:09:41;53.85;;;7.07;;
44694;SDS011;32845;59.422;17.930;2024-01-30T03:14:13;65.28;;;7.45;;
44694;SDS011;32845;59.422;17.930;2024-01-30T03:18:44;70.32;;;10.00;;
44694;SDS011;32845;59.422;17.930;2024-01-30T03:23:14;24.40;;;6.07;;
44694;SDS011;32845;59.422;17.930;2024-01-30T03:27:45;54.90;;;6.93;;
44694;SDS011;32845;59.422;17.930;2024-01-30T03:32:15;49.35;;;6.78;;
44694;SDS011;32845;59.422;17.930;2024-01-30T03:36:46;33.47;;;6.72;;
44694;SDS011;32845;59.422;17.930;2024-01-30T03:41:16;48.92;;;7.15;;
44694;SDS011;32845;59.422;17.930;2024-01-30T03:45:47;108.38;;;7.45;;
44694;SDS011;32845;59.422;17.930;2024-01-30T03:50:18;105.53;;;6.97;;
44694;SDS011;32845;59.422;17.930;2024-01-30T03:54:48;67.13;;;5.47;;
44694;SDS011;32845;59.422;17.930;2024-01-30T03:59:19;64.47;;;5.60;;
44694;SDS011;32845;59.422;17.930;2024-01-30T04:03:54;42.53;;;5.78;;
44694;SDS011;32845;59.422;17.930;2024-01-30T04:08:24;48.55;;;5.90;;
44694;SDS011;32845;59.422;17.930;2024-01-30T04:12:55;46.78;;;6.30;;
44694;SDS011;32845;59.422;17.930;2024-01-30T04:17:25;61.08;;;6.22;;
44694;SDS011;32845;59.422;17.930;2024-01-30T04:21:56;50.97;;;6.03;;
44694;SDS011;32845;59.422;17.930;2024-01-30T04:26:27;12.02;;;4.97;;
44694;SDS011;32845;59.422;17.930;2024-01-30T04:30:57;50.70;;;5.07;;
44694;SDS011;32845;59.422;17.930;2024-01-30T04:35:28;21.27;;;4.85;;
44694;SDS011;32845;59.422;17.930;2024-01-30T04:39:58;17.45;;;5.30;;
44694;SDS011;32845;59.422;17.930;2024-01-30T04:44:30;10.35;;;3.95;;
44694;SDS011;32845;59.422;17.930;2024-01-30T04:49:01;13.25;;;4.70;;
44694;SDS011;32845;59.422;17.930;2024-01-30T04:53:31;7.53;;;4.22;;
44694;SDS011;32845;59.422;17.930;2024-01-30T04:58:02;17.05;;;4.70;;
44694;SDS011;32845;59.422;17.930;2024-01-30T05:02:32;11.85;;;4.88;;
44694;SDS011;32845;59.422;17.930;2024-01-30T05:07:03;14.23;;;4.65;;
44694;SDS011;32845;59.422;17.930;2024-01-30T05:11:37;34.45;;;5.80;;
44694;SDS011;32845;59.422;17.930;2024-01-30T05:16:08;38.28;;;5.38;;
44694;SDS011;32845;59.422;17.930;2024-01-30T05:20:39;55.95;;;7.25;;
44694;SDS011;32845;59.422;17.930;2024-01-30T05:25:10;120.50;;;6.78;;
44694;SDS011;32845;59.422;17.930;2024-01-30T05:29:42;29.30;;;5.03;;
44694;SDS011;32845;59.422;17.930;2024-01-30T05:34:12;26.67;;;5.82;;
44694;SDS011;32845;59.422;17.930;2024-01-30T05:38:43;35.83;;;6.28;;
44694;SDS011;32845;59.422;17.930;2024-01-30T05:43:14;28.00;;;6.72;;
44694;SDS011;32845;59.422;17.930;2024-01-30T05:47:44;17.30;;;5.72;;
44694;SDS011;32845;59.422;17.930;2024-01-30T05:52:15;26.15;;;6.35;;
44694;SDS011;32845;59.422;17.930;2024-01-30T05:56:46;35.88;;;5.68;;
44694;SDS011;32845;59.422;17.930;2024-01-30T06:01:17;35.90;;;5.88;;
44694;SDS011;32845;59.422;17.930;2024-01-30T06:05:47;30.23;;;6.30;;
44694;SDS011;32845;59.422;17.930;2024-01-30T06:10:18;33.22;;;6.75;;
44694;SDS011;32845;59.422;17.930;2024-01-30T06:14:48;27.23;;;6.47;;
44694;SDS011;32845;59.422;17.930;2024-01-30T06:19:19;57.40;;;7.60;;
44694;SDS011;32845;59.422;17.930;2024-01-30T06:23:50;42.97;;;6.55;;
44694;SDS011;32845;59.422;17.930;2024-01-30T06:28:20;35.20;;;6.80;;
44694;SDS011;32845;59.422;17.930;2024-01-30T06:32:51;20.90;;;6.40;;
44694;SDS011;32845;59.422;17.930;2024-01-30T06:37:21;29.50;;;5.93;;
44694;SDS011;32845;59.422;17.930;2024-01-30T06:41:52;42.38;;;7.20;;
44694;SDS011;32845;59.422;17.930;2024-01-30T06:46:22;26.95;;;6.47;;
44694;SDS011;32845;59.422;17.930;2024-01-30T06:50:53;35.85;;;7.47;;
44694;SDS011;32845;59.422;17.930;2024-01-30T06:55:24;42.00;;;9.20;;
44694;SDS011;32845;59.422;17.930;2024-01-30T06:59:54;40.83;;;8.07;;
44694;SDS011;32845;59.422;17.930;2024-01-30T07:04:25;33.03;;;9.25;;
44694;SDS011;32845;59.422;17.930;2024-01-30T07:08:56;26.73;;;6.97;;
44694;SDS011;32845;59.422;17.930;2024-01-30T07:13:27;27.80;;;6.63;;
44694;SDS011;32845;59.422;17.930;2024-01-30T07:17:58;28.63;;;7.70;;
44694;SDS011;32845;59.422;17.930;2024-01-30T07:22:29;48.25;;;7.85;;
44694;SDS011;32845;59.422;17.930;2024-01-30T07:27:00;54.97;;;8.70;;
44694;SDS011;32845;59.422;17.930;2024-01-30T07:31:31;48.25;;;8.45;;
44694;SDS011;32845;59.422;17.930;2024-01-30T07:36:02;37.13;;;7.50;;
44694;SDS011;32845;59.422;17.930;2024-01-30T07:40:32;36.80;;;8.60;;
44694;SDS011;32845;59.422;17.930;2024-01-30T07:45:06;30.60;;;7.75;;
44694;SDS011;32845;59.422;17.930;2024-01-30T07:49:37;69.13;;;7.80;;
44694;SDS011;32845;59.422;17.930;2024-01-30T07:54:07;52.75;;;7.30;;
44694;SDS011;32845;59.422;17.930;2024-01-30T07:58:38;48.85;;;8.65;;
44694;SDS011;32845;59.422;17.930;2024-01-30T08:03:08;35.88;;;8.30;;
44694;SDS011;32845;59.422;17.930;2024-01-30T08:07:39;26.67;;;8.10;;
44694;SDS011;32845;59.422;17.930;2024-01-30T08:12:10;36.00;;;8.82;;
44694;SDS011;32845;59.422;17.930;2024-01-30T08:16:40;50.60;;;9.15;;
44694;SDS011;32845;59.422;17.930;2024-01-30T08:21:11;55.30;;;9.88;;
44694;SDS011;32845;59.422;17.930;2024-01-30T08:25:41;45.38;;;8.40;;
44694;SDS011;32845;59.422;17.930;2024-01-30T08:30:12;98.88;;;9.43;;
44694;SDS011;32845;59.422;17.930;2024-01-30T08:34:43;115.03;;;11.40;;
44694;SDS011;32845;59.422;17.930;2024-01-30T08:39:13;114.28;;;11.25;;
44694;SDS011;32845;59.422;17.930;2024-01-30T08:43:44;70.93;;;11.15;;
44694;SDS011;32845;59.422;17.930;2024-01-30T08:48:15;98.20;;;10.95;;
44694;SDS011;32845;59.422;17.930;2024-01-30T08:52:45;60.70;;;10.32;;
44694;SDS011;32845;59.422;17.930;2024-01-30T08:57:16;54.42;;;10.20;;
44694;SDS011;32845;59.422;17.930;2024-01-30T09:01:46;39.47;;;10.13;;
44694;SDS011;32845;59.422;17.930;2024-01-30T09:06:17;38.90;;;10.68;;
44694;SDS011;32845;59.422;17.930;2024-01-30T09:10:48;41.05;;;11.60;;
44694;SDS011;32845;59.422;17.930;2024-01-30T09:15:24;31.17;;;10.35;;
44694;SDS011;32845;59.422;17.930;2024-01-30T09:19:55;30.60;;;10.25;;
44694;SDS011;32845;59.422;17.930;2024-01-30T09:24:26;30.67;;;10.07;;
44694;SDS011;32845;59.422;17.930;2024-01-30T09:28:57;34.90;;;10.32;;
44694;SDS011;32845;59.422;17.930;2024-01-30T09:33:27;35.65;;;10.20;;
44694;SDS011;32845;59.422;17.930;2024-01-30T09:37:58;29.05;;;9.20;;
44694;SDS011;32845;59.422;17.930;2024-01-30T09:42:35;26.00;;;8.52;;
44694;SDS011;32845;59.422;17.930;2024-01-30T09:47:06;31.67;;;9.32;;
44694;SDS011;32845;59.422;17.930;2024-01-30T09:51:37;29.65;;;9.98;;
44694;SDS011;32845;59.422;17.930;2024-01-30T09:56:08;33.15;;;10.15;;
44694;SDS011;32845;59.422;17.930;2024-01-30T10:00:39;37.42;;;10.63;;
44694;SDS011;32845;59.422;17.930;2024-01-30T10:05:09;33.15;;;10.75;;
44694;SDS011;32845;59.422;17.930;2024-01-30T10:09:45;29.75;;;10.05;;
44694;SDS011;32845;59.422;17.930;2024-01-30T10:14:16;38.70;;;11.55;;
44694;SDS011;32845;59.422;17.930;2024-01-30T10:18:46;38.92;;;10.25;;
44694;SDS011;32845;59.422;17.930;2024-01-30T10:23:17;37.70;;;10.05;;
44694;SDS011;32845;59.422;17.930;2024-01-30T10:27:52;30.70;;;10.40;;
44694;SDS011;32845;59.422;17.930;2024-01-30T10:32:26;32.30;;;9.75;;
44694;SDS011;32845;59.422;17.930;2024-01-30T10:41:45;38.22;;;9.75;;
44694;SDS011;32845;59.422;17.930;2024-01-30T10:46:19;39.45;;;10.30;;
44694;SDS011;32845;59.422;17.930;2024-01-30T10:50:51;29.90;;;10.10;;
44694;SDS011;32845;59.422;17.930;2024-01-30T10:55:25;38.20;;;10.95;;
44694;SDS011;32845;59.422;17.930;2024-01-30T10:59:58;32.80;;;9.93;;
44694;SDS011;32845;59.422;17.930;2024-01-30T11:04:38;25.98;;;10.05;;
44694;SDS011;32845;59.422;17.930;2024-01-30T11:09:11;32.83;;;10.25;;
44694;SDS011;32845;59.422;17.930;2024-01-30T11:13:42;34.30;;;10.68;;
44694;SDS011;32845;59.422;17.930;2024-01-30T11:18:22;36.78;;;11.25;;
44694;SDS011;32845;59.422;17.930;2024-01-30T11:22:55;39.10;;;11.57;;
44694;SDS011;32845;59.422;17.930;2024-01-30T11:27:26;31.88;;;10.45;;
44694;SDS011;32845;59.422;17.930;2024-01-30T11:31:58;33.22;;;11.52;;
44694;SDS011;32845;59.422;17.930;2024-01-30T11:36:29;35.83;;;11.25;;
44694;SDS011;32845;59.422;17.930;2024-01-30T11:41:02;31.15;;;11.57;;
44694;SDS011;32845;59.422;17.930;2024-01-30T11:45:35;44.10;;;13.18;;
44694;SDS011;32845;59.422;17.930;2024-01-30T11:50:06;28.75;;;11.88;;
44694;SDS011;32845;59.422;17.930;2024-01-30T11:54:41;27.75;;;10.52;;
44694;SDS011;32845;59.422;17.930;2024-01-30T11:59:12;31.17;;;11.23;;
44694;SDS011;32845;59.422;17.930;2024-01-30T12:03:49;27.98;;;10.27;;
44694;SDS011;32845;59.422;17.930;2024-01-30T12:08:20;30.10;;;9.82;;
44694;SDS011;32845;59.422;17.930;2024-01-30T12:12:50;24.98;;;8.90;;
44694;SDS011;32845;59.422;17.930;2024-01-30T12:17:31;26.98;;;9.45;;
44694;SDS011;32845;59.422;17.930;2024-01-30T12:22:02;23.77;;;8.48;;
44694;SDS011;32845;59.422;17.930;2024-01-30T12:26:33;23.50;;;9.27;;
44694;SDS011;32845;59.422;17.930;2024-01-30T12:31:04;26.40;;;10.27;;
44694;SDS011;32845;59.422;17.930;2024-01-30T12:35:35;30.00;;;11.35;;
44694;SDS011;32845;59.422;17.930;2024-01-30T12:40:06;29.92;;;10.00;;
44694;SDS011;32845;59.422;17.930;2024-01-30T12:44:38;24.02;;;9.68;;
44694;SDS011;32845;59.422;17.930;2024-01-30T12:49:08;31.13;;;10.85;;
44694;SDS011;32845;59.422;17.930;2024-01-30T12:53:39;29.63;;;10.10;;
44694;SDS011;32845;59.422;17.930;2024-01-30T12:58:10;28.00;;;10.52;;
44694;SDS011;32845;59.422;17.930;2024-01-30T13:02:40;27.38;;;11.35;;
44694;SDS011;32845;59.422;17.930;2024-01-30T13:07:12;39.30;;;11.95;;
44694;SDS011;32845;59.422;17.930;2024-01-30T13:11:43;28.27;;;10.75;;
44694;SDS011;32845;59.422;17.930;2024-01-30T13:16:13;28.25;;;9.80;;
44694;SDS011;32845;59.422;17.930;2024-01-30T13:20:44;27.95;;;10.73;;
44694;SDS011;32845;59.422;17.930;2024-01-30T13:25:15;35.05;;;10.75;;
44694;SDS011;32845;59.422;17.930;2024-01-30T13:29:46;30.17;;;11.38;;
44694;SDS011;32845;59.422;17.930;2024-01-30T13:34:16;24.88;;;10.25;;
44694;SDS011;32845;59.422;17.930;2024-01-30T13:38:47;30.83;;;10.45;;
44694;SDS011;32845;59.422;17.930;2024-01-30T13:43:18;29.40;;;10.65;;
44694;SDS011;32845;59.422;17.930;2024-01-30T13:47:48;31.95;;;11.43;;
44694;SDS011;32845;59.422;17.930;2024-01-30T13:52:19;34.30;;;10.70;;
44694;SDS011;32845;59.422;17.930;2024-01-30T13:56:50;39.35;;;11.45;;
44694;SDS011;32845;59.422;17.930;2024-01-30T14:01:20;31.70;;;11.40;;
44694;SDS011;32845;59.422;17.930;2024-01-30T14:05:51;27.38;;;10.27;;
44694;SDS011;32845;59.422;17.930;2024-01-30T14:10:21;32.80;;;10.85;;
44694;SDS011;32845;59.422;17.930;2024-01-30T14:14:52;37.08;;;10.95;;
44694;SDS011;32845;59.422;17.930;2024-01-30T14:19:22;29.35;;;10.63;;
44694;SDS011;32845;59.422;17.930;2024-01-30T14:23:53;28.92;;;8.93;;
44694;SDS011;32845;59.422;17.930;2024-01-30T14:28:24;30.05;;;10.30;;
44694;SDS011;32845;59.422;17.930;2024-01-30T14:32:54;27.63;;;10.30;;
44694;SDS011;32845;59.422;17.930;2024-01-30T14:37:26;33.67;;;10.02;;
44694;SDS011;32845;59.422;17.930;2024-01-30T14:41:59;33.78;;;11.45;;
44694;SDS011;32845;59.422;17.930;2024-01-30T14:46:30;30.67;;;11.32;;
44694;SDS011;32845;59.422;17.930;2024-01-30T14:51:00;32.10;;;10.68;;
44694;SDS011;32845;59.422;17.930;2024-01-30T14:55:31;33.42;;;11.32;;
44694;SDS011;32845;59.422;17.930;2024-01-30T15:00:01;29.92;;;10.52;;
44694;SDS011;32845;59.422;17.930;2024-01-30T15:04:33;33.75;;;11.75;;
44694;SDS011;32845;59.422;17.930;2024-01-30T15:09:03;38.95;;;11.30;;
44694;SDS011;32845;59.422;17.930;2024-01-30T15:13:35;40.58;;;11.90;;
44694;SDS011;32845;59.422;17.930;2024-01-30T15:18:05;42.47;;;12.55;;
44694;SDS011;32845;59.422;17.930;2024-01-30T15:22:37;40.85;;;12.55;;
44694;SDS011;32845;59.422;17.930;2024-01-30T15:27:07;41.95;;;12.80;;
44694;SDS011;32845;59.422;17.930;2024-01-30T15:31:38;36.63;;;11.15;;
44694;SDS011;32845;59.422;17.930;2024-01-30T15:36:09;34.85;;;11.15;;
44694;SDS011;32845;59.422;17.930;2024-01-30T15:40:43;43.55;;;11.85;;
44694;SDS011;32845;59.422;17.930;2024-01-30T15:45:14;50.38;;;13.75;;
44694;SDS011;32845;59.422;17.930;2024-01-30T15:49:44;42.85;;;12.45;;
44694;SDS011;32845;59.422;17.930;2024-01-30T15:54:15;31.02;;;10.90;;
44694;SDS011;32845;59.422;17.930;2024-01-30T15:58:47;35.88;;;10.60;;
44694;SDS011;32845;59.422;17.930;2024-01-30T16:03:19;36.25;;;10.85;;
44694;SDS011;32845;59.422;17.930;2024-01-30T16:07:50;36.55;;;10.43;;
44694;SDS011;32845;59.422;17.930;2024-01-30T16:12:21;29.00;;;11.52;;
44694;SDS011;32845;59.422;17.930;2024-01-30T16:16:51;32.70;;;11.65;;
44694;SDS011;32845;59.422;17.930;2024-01-30T16:21:22;37.28;;;10.18;;
44694;SDS011;32845;59.422;17.930;2024-01-30T16:25:53;33.10;;;12.88;;
44694;SDS011;32845;59.422;17.930;2024-01-30T16:30:24;27.33;;;11.15;;
44694;SDS011;32845;59.422;17.930;2024-01-30T16:34:54;28.92;;;11.77;;
44694;SDS011;32845;59.422;17.930;2024-01-30T16:39:25;28.75;;;12.23;;
44694;SDS011;32845;59.422;17.930;2024-01-30T16:43:56;21.38;;;8.00;;
44694;SDS011;32845;59.422;17.930;2024-01-30T16:48:27;82.32;;;28.02;;
44694;SDS011;32845;59.422;17.930;2024-01-30T16:52:57;43.95;;;14.98;;
44694;SDS011;32845;59.422;17.930;2024-01-30T16:57:28;29.40;;;11.20;;
44694;SDS011;32845;59.422;17.930;2024-01-30T17:01:58;43.17;;;15.43;;
44694;SDS011;32845;59.422;17.930;2024-01-30T17:06:29;30.00;;;10.70;;
44694;SDS011;32845;59.422;17.930;2024-01-30T17:10:59;54.88;;;17.73;;
44694;SDS011;32845;59.422;17.930;2024-01-30T17:15:30;23.00;;;10.32;;
44694;SDS011;32845;59.422;17.930;2024-01-30T17:20:01;31.55;;;15.93;;
44694;SDS011;32845;59.422;17.930;2024-01-30T17:24:32;32.90;;;16.55;;
44694;SDS011;32845;59.422;17.930;2024-01-30T17:29:03;28.10;;;10.05;;
44694;SDS011;32845;59.422;17.930;2024-01-30T17:33:34;24.83;;;9.93;;
44694;SDS011;32845;59.422;17.930;2024-01-30T17:38:04;22.65;;;10.30;;
44694;SDS011;32845;59.422;17.930;2024-01-30T17:42:35;19.98;;;8.45;;
44694;SDS011;32845;59.422;17.930;2024-01-30T17:47:06;21.38;;;7.53;;
44694;SDS011;32845;59.422;17.930;2024-01-30T17:51:39;20.23;;;7.18;;
44694;SDS011;32845;59.422;17.930;2024-01-30T17:56:10;18.00;;;7.57;;
44694;SDS011;32845;59.422;17.930;2024-01-30T18:00:41;18.42;;;7.47;;
44694;SDS011;32845;59.422;17.930;2024-01-30T18:05:12;15.77;;;7.22;;
44694;SDS011;32845;59.422;17.930;2024-01-30T18:09:43;17.88;;;7.15;;
44694;SDS011;32845;59.422;17.930;2024-01-30T18:14:13;16.98;;;7.72;;
44694;SDS011;32845;59.422;17.930;2024-01-30T18:18:44;17.35;;;8.85;;
44694;SDS011;32845;59.422;17.930;2024-01-30T18:23:15;17.73;;;7.20;;
44694;SDS011;32845;59.422;17.930;2024-01-30T18:27:45;19.05;;;8.07;;
44694;SDS011;32845;59.422;17.930;2024-01-30T18:32:16;17.95;;;6.75;;
44694;SDS011;32845;59.422;17.930;2024-01-30T18:36:52;15.50;;;7.30;;
44694;SDS011;32845;59.422;17.930;2024-01-30T18:41:23;14.05;;;6.50;;
44694;SDS011;32845;59.422;17.930;2024-01-30T18:45:53;13.15;;;6.80;;
44694;SDS011;32845;59.422;17.930;2024-01-30T18:50:24;16.30;;;6.75;;
44694;SDS011;32845;59.422;17.930;2024-01-30T18:54:55;10.75;;;6.10;;
44694;SDS011;32845;59.422;17.930;2024-01-30T18:59:25;11.23;;;5.60;;
44694;SDS011;32845;59.422;17.930;2024-01-30T19:03:56;12.55;;;5.57;;
44694;SDS011;32845;59.422;17.930;2024-01-30T19:08:27;18.88;;;6.53;;
44694;SDS011;32845;59.422;17.930;2024-01-30T19:12:57;12.07;;;5.75;;
44694;SDS011;32845;59.422;17.930;2024-01-30T19:17:28;19.85;;;6.65;;
44694;SDS011;32845;59.422;17.930;2024-01-30T19:21:59;12.02;;;4.78;;
44694;SDS011;32845;59.422;17.930;2024-01-30T19:26:29;19.83;;;6.25;;
44694;SDS011;32845;59.422;17.930;2024-01-30T19:31:00;27.88;;;9.43;;
44694;SDS011;32845;59.422;17.930;2024-01-30T19:35:32;9.35;;;4.55;;
44694;SDS011;32845;59.422;17.930;2024-01-30T19:40:03;16.20;;;6.78;;
44694;SDS011;32845;59.422;17.930;2024-01-30T19:44:37;10.27;;;4.25;;
44694;SDS011;32845;59.422;17.930;2024-01-30T19:49:08;9.93;;;4.47;;
44694;SDS011;32845;59.422;17.930;2024-01-30T19:53:39;9.07;;;5.00;;
44694;SDS011;32845;59.422;17.930;2024-01-30T19:58:10;7.57;;;3.90;;
44694;SDS011;32845;59.422;17.930;2024-01-30T20:02:41;9.80;;;3.80;;
44694;SDS011;32845;59.422;17.930;2024-01-30T20:07:12;7.03;;;4.22;;
44694;SDS011;32845;59.422;17.930;2024-01-30T20:11:43;11.55;;;3.85;;
44694;SDS011;32845;59.422;17.930;2024-01-30T20:16:14;11.95;;;4.00;;
44694;SDS011;32845;59.422;17.930;2024-01-30T20:20:45;13.40;;;4.90;;
44694;SDS011;32845;59.422;17.930;2024-01-30T20:25:15;16.75;;;4.82;;
44694;SDS011;32845;59.422;17.930;2024-01-30T20:29:46;12.05;;;4.45;;
44694;SDS011;32845;59.422;17.930;2024-01-30T20:34:17;13.60;;;4.88;;
44694;SDS011;32845;59.422;17.930;2024-01-30T20:38:47;15.60;;;5.70;;
44694;SDS011;32845;59.422;17.930;2024-01-30T20:43:18;12.15;;;4.95;;
44694;SDS011;32845;59.422;17.930;2024-01-30T20:47:48;13.75;;;5.07;;
44694;SDS011;32845;59.422;17.930;2024-01-30T20:52:19;18.88;;;5.57;;
44694;SDS011;32845;59.422;17.930;2024-01-30T20:56:49;17.40;;;6.25;;
44694;SDS011;32845;59.422;17.930;2024-01-30T21:01:20;19.52;;;5.95;;
44694;SDS011;32845;59.422;17.930;2024-01-30T21:05:51;14.70;;;6.20;;
44694;SDS011;32845;59.422;17.930;2024-01-30T21:10:21;15.52;;;5.95;;
44694;SDS011;32845;59.422;17.930;2024-01-30T21:14:52;12.13;;;5.40;;
44694;SDS011;32845;59.422;17.930;2024-01-30T21:19:22;15.18;;;6.15;;
44694;SDS011;32845;59.422;17.930;2024-01-30T21:23:53;12.00;;;5.80;;
44694;SDS011;32845;59.422;17.930;2024-01-30T21:28:23;13.98;;;5.35;;
44694;SDS011;32845;59.422;17.930;2024-01-30T21:32:54;13.25;;;5.53;;
44694;SDS011;32845;59.422;17.930;2024-01-30T21:37:25;8.20;;;5.13;;
44694;SDS011;32845;59.422;17.930;2024-01-30T21:41:55;13.60;;;4.90;;
44694;SDS011;32845;59.422;17.930;2024-01-30T21:46:26;9.88;;;5.18;;
44694;SDS011;32845;59.422;17.930;2024-01-30T21:50:57;9.43;;;4.55;;
44694;SDS011;32845;59.422;17.930;2024-01-30T21:55:28;12.63;;;4.55;;
44694;SDS011;32845;59.422;17.930;2024-01-30T21:59:59;9.80;;;3.97;;
44694;SDS011;32845;59.422;17.930;2024-01-30T22:04:29;9.70;;;4.22;;
44694;SDS011;32845;59.422;17.930;2024-01-30T22:09:00;14.20;;;4.65;;
44694;SDS011;32845;59.422;17.930;2024-01-30T22:13:31;11.32;;;5.18;;
44694;SDS011;32845;59.422;17.930;2024-01-30T22:18:01;7.43;;;3.55;;
44694;SDS011;32845;59.422;17.930;2024-01-30T22:22:34;9.70;;;3.60;;
44694;SDS011;32845;59.422;17.930;2024-01-30T22:27:05;11.90;;;3.65;;
44694;SDS011;32845;59.422;17.930;2024-01-30T22:31:36;10.18;;;3.13;;
44694;SDS011;32845;59.422;17.930;2024-01-30T22:36:06;8.07;;;3.28;;
44694;SDS011;32845;59.422;17.930;2024-01-30T22:40:37;5.78;;;3.15;;
44694;SDS011;32845;59.422;17.930;2024-01-30T22:45:07;7.47;;;3.28;;
44694;SDS011;32845;59.422;17.930;2024-01-30T22:49:38;9.65;;;3.72;;
44694;SDS011;32845;59.422;17.930;2024-01-30T22:54:09;6.20;;;3.15;;
44694;SDS011;32845;59.422;17.930;2024-01-30T22:58:39;7.07;;;2.85;;
44694;SDS011;32845;59.422;17.930;2024-01-30T23:03:10;5.28;;;3.00;;
44694;SDS011;32845;59.422;17.930;2024-01-30T23:07:41;8.32;;;3.38;;
44694;SDS011;32845;59.422;17.930;2024-01-30T23:12:11;4.47;;;2.95;;
44694;SDS011;32845;59.422;17.930;2024-01-30T23:16:42;4.90;;;3.28;;
44694;SDS011;32845;59.422;17.930;2024-01-30T23:21:12;5.70;;;3.40;;
44694;SDS011;32845;59.422;17.930;2024-01-30T23:25:43;9.25;;;2.75;;
44694;SDS011;32845;59.422;17.930;2024-01-30T23:30:13;6.03;;;2.78;;
44694;SDS011;32845;59.422;17.930;2024-01-30T23:34:44;4.25;;;2.53;;
44694;SDS011;32845;59.422;17.930;2024-01-30T23:39:15;5.57;;;2.70;;
44694;SDS011;32845;59.422;17.930;2024-01-30T23:43:46;3.72;;;2.38;;
44694;SDS011;32845;59.422;17.930;2024-01-30T23:48:16;5.30;;;2.30;;
44694;SDS011;32845;59.422;17.930;2024-01-30T23:52:47;2.67;;;1.73;;
44694;SDS011;32845;59.422;17.930;2024-01-30T23:57:19;3.08;;;2.05;;
